Time;durP1;ratioP1;P1;durP2;ratioP2;P2;SDS_P1;SDS_P2;PMS_P1;PMS_P2;Temp;Humidity;BMP_temperature;BMP_pressure;BME280_temperature;BME280_humidity;BME280_pressure;Samples;Min_cycle;Max_cycle;Signal;HPM_P1;HPM_P2
2023/12/23 00:02:10;;;;;;;3.60;1.50;;;10.00;99.90;;;;;;5031178;28;20439;-29
2023/12/23 00:04:40;;;;;;;2.50;1.67;;;10.00;99.90;;;;;;5024322;28;20471;-32
2023/12/23 00:07:06;;;;;;;4.13;1.70;;;10.00;99.90;;;;;;5016910;28;20451;-33
2023/12/23 00:09:32;;;;;;;5.57;1.90;;;10.00;99.90;;;;;;5021653;28;20430;-31
2023/12/23 00:12:00;;;;;;;2.50;1.60;;;10.00;99.90;;;;;;4984586;28;20426;-34
2023/12/23 00:14:26;;;;;;;5.30;2.00;;;10.00;99.90;;;;;;5024493;28;20436;-29
2023/12/23 00:16:54;;;;;;;3.03;1.30;;;10.00;99.90;;;;;;5001838;28;20456;-31
2023/12/23 00:19:23;;;;;;;3.13;1.50;;;10.00;99.90;;;;;;5014812;28;20442;-31
2023/12/23 00:21:51;;;;;;;6.57;1.90;;;10.00;99.90;;;;;;5019312;28;20443;-29
2023/12/23 00:24:17;;;;;;;5.73;1.60;;;10.00;99.90;;;;;;5029439;28;20525;-29
2023/12/23 00:26:46;;;;;;;4.93;1.73;;;10.00;99.90;;;;;;5027241;28;20444;-29
2023/12/23 00:29:15;;;;;;;4.23;1.90;;;10.00;99.90;;;;;;5018557;28;20439;-27
2023/12/23 00:31:44;;;;;;;3.13;1.97;;;10.00;99.90;;;;;;5003089;28;21002;-31
2023/12/23 00:34:10;;;;;;;4.33;1.60;;;10.00;99.90;;;;;;5014559;28;20542;-31
2023/12/23 00:36:36;;;;;;;5.80;1.70;;;10.00;99.90;;;;;;5015014;28;20447;-28
2023/12/23 00:39:03;;;;;;;2.50;1.40;;;10.00;99.90;;;;;;5010276;28;20459;-32
2023/12/23 00:41:33;;;;;;;4.40;1.83;;;10.00;99.90;;;;;;5014740;28;20871;-29
2023/12/23 00:44:01;;;;;;;6.63;1.67;;;9.90;99.90;;;;;;5023058;28;20475;-34
2023/12/23 00:46:29;;;;;;;7.23;1.70;;;9.90;99.90;;;;;;5007413;28;20873;-35
2023/12/23 00:49:00;;;;;;;3.37;1.60;;;9.90;99.90;;;;;;5026806;28;21368;-26
2023/12/23 00:51:26;;;;;;;3.30;1.70;;;9.90;99.90;;;;;;4990104;28;20467;-30
2023/12/23 00:53:54;;;;;;;5.23;1.63;;;10.00;99.90;;;;;;5002971;28;20427;-29
2023/12/23 00:56:23;;;;;;;3.90;1.83;;;10.00;99.90;;;;;;5009462;28;20462;-33
2023/12/23 00:58:51;;;;;;;4.17;2.33;;;9.90;99.90;;;;;;5007091;28;20431;-33
2023/12/23 01:01:17;;;;;;;3.60;1.87;;;9.90;99.90;;;;;;5005634;28;20506;-30
2023/12/23 01:03:43;;;;;;;5.33;1.43;;;9.90;99.90;;;;;;5017843;28;20533;-34
2023/12/23 01:06:10;;;;;;;5.13;2.17;;;10.00;99.90;;;;;;5015017;28;21063;-27
2023/12/23 01:08:38;;;;;;;4.27;1.27;;;9.90;99.90;;;;;;5024231;28;21062;-31
2023/12/23 01:11:04;;;;;;;2.60;1.40;;;9.90;99.90;;;;;;5009106;28;20423;-30
2023/12/23 01:13:30;;;;;;;2.83;1.53;;;9.90;99.90;;;;;;5022822;28;20431;-33
2023/12/23 01:15:58;;;;;;;6.00;1.73;;;9.90;99.90;;;;;;5000355;28;20220;-27
2023/12/23 01:18:27;;;;;;;3.50;1.70;;;9.90;99.90;;;;;;5021271;28;20876;-31
2023/12/23 01:20:53;;;;;;;3.30;1.50;;;9.90;99.90;;;;;;5019380;28;20424;-31
2023/12/23 01:23:19;;;;;;;5.23;1.77;;;9.90;99.90;;;;;;5022489;28;20451;-31
2023/12/23 01:25:47;;;;;;;4.93;1.60;;;9.90;99.90;;;;;;5015843;28;20479;-29
2023/12/23 01:28:13;;;;;;;6.10;1.60;;;9.90;99.90;;;;;;4999029;28;20547;-33
2023/12/23 01:30:39;;;;;;;4.70;1.60;;;9.90;99.90;;;;;;5019527;28;20432;-35
2023/12/23 01:33:07;;;;;;;3.30;1.27;;;9.90;99.90;;;;;;5011232;28;20451;-34
2023/12/23 01:35:34;;;;;;;8.00;2.60;;;9.90;99.90;;;;;;5009116;28;20930;-29
2023/12/23 01:38:00;;;;;;;7.20;1.73;;;9.90;99.90;;;;;;5003354;28;21157;-31
2023/12/23 01:40:26;;;;;;;4.03;1.70;;;9.90;99.90;;;;;;5018306;28;20510;-27
2023/12/23 01:42:52;;;;;;;3.17;1.60;;;9.90;99.90;;;;;;5019477;28;20841;-30
2023/12/23 01:45:18;;;;;;;2.93;1.57;;;9.90;99.90;;;;;;5016555;28;20506;-31
2023/12/23 01:47:46;;;;;;;4.80;1.73;;;9.90;99.90;;;;;;5000230;28;20538;-28
2023/12/23 01:50:13;;;;;;;4.53;1.73;;;9.90;99.90;;;;;;5016336;28;20455;-32
2023/12/23 01:52:39;;;;;;;4.17;2.37;;;9.90;99.90;;;;;;5018899;28;20431;-31
2023/12/23 01:55:08;;;;;;;4.03;1.60;;;9.90;99.90;;;;;;5017989;28;20563;-28
2023/12/23 01:57:34;;;;;;;4.93;1.80;;;9.90;99.90;;;;;;5008465;28;20531;-29
2023/12/23 02:00:00;;;;;;;3.00;1.33;;;9.90;99.90;;;;;;5021064;28;20891;-31
2023/12/23 02:02:28;;;;;;;3.63;1.50;;;9.90;99.90;;;;;;5008859;28;21030;-33
2023/12/23 02:04:56;;;;;;;2.97;1.60;;;9.90;99.90;;;;;;5016320;28;20467;-27
2023/12/23 02:07:24;;;;;;;2.87;1.37;;;9.90;99.90;;;;;;5006145;28;20428;-33
2023/12/23 02:09:53;;;;;;;3.23;1.53;;;9.90;99.90;;;;;;5012148;28;20522;-34
2023/12/23 02:12:58;;;;;;;5.50;1.60;;;9.90;99.90;;;;;;5018934;28;20442;-28
2023/12/23 02:15:27;;;;;;;3.73;1.50;;;9.90;99.90;;;;;;5015685;28;20443;-29
2023/12/23 02:18:00;;;;;;;6.57;1.93;;;9.90;99.90;;;;;;5007841;28;20427;-32
2023/12/23 02:20:27;;;;;;;2.10;1.33;;;9.90;99.90;;;;;;5008874;28;20448;-31
2023/12/23 02:22:53;;;;;;;5.17;1.70;;;9.90;99.90;;;;;;5019594;28;20485;-34
2023/12/23 02:25:20;;;;;;;4.10;1.50;;;9.90;99.90;;;;;;5013101;28;20467;-32
2023/12/23 02:27:53;;;;;;;3.97;1.40;;;9.90;99.90;;;;;;5014430;28;20474;-28
2023/12/23 02:30:24;;;;;;;5.00;1.47;;;9.90;99.90;;;;;;5001232;28;20446;-30
2023/12/23 02:32:51;;;;;;;2.57;1.53;;;9.90;99.90;;;;;;5010378;28;20470;-31
2023/12/23 02:35:17;;;;;;;5.00;1.63;;;9.90;99.90;;;;;;5012004;28;21071;-34
2023/12/23 02:37:43;;;;;;;2.73;1.40;;;9.90;99.90;;;;;;5007642;28;20451;-35
2023/12/23 02:40:10;;;;;;;3.10;1.50;;;9.90;99.90;;;;;;5016077;28;20428;-32
2023/12/23 02:43:01;;;;;;;3.10;1.50;;;9.90;99.90;;;;;;5010993;28;20454;-28
2023/12/23 02:45:28;;;;;;;5.67;1.37;;;9.90;99.90;;;;;;5021253;28;20904;-29
2023/12/23 02:47:54;;;;;;;6.60;1.70;;;9.90;99.90;;;;;;4999583;28;20442;-35
2023/12/23 02:50:21;;;;;;;6.80;2.20;;;9.90;99.90;;;;;;5013046;28;20431;-28
2023/12/23 02:52:47;;;;;;;3.50;1.67;;;9.90;99.90;;;;;;5012913;28;20442;-26
2023/12/23 02:55:15;;;;;;;2.80;1.50;;;9.90;99.90;;;;;;5024328;28;20415;-34
2023/12/23 02:57:41;;;;;;;2.90;1.43;;;9.80;99.90;;;;;;5030775;28;21077;-33
2023/12/23 03:00:09;;;;;;;6.83;1.43;;;9.90;99.90;;;;;;5032281;28;20831;-33
2023/12/23 03:02:35;;;;;;;3.50;1.87;;;9.90;99.90;;;;;;4974510;28;20547;-34
2023/12/23 03:05:05;;;;;;;3.27;1.23;;;9.90;99.90;;;;;;5028162;28;20467;-29
2023/12/23 03:07:31;;;;;;;2.30;1.30;;;9.90;99.90;;;;;;5012120;28;20458;-34
2023/12/23 03:09:57;;;;;;;3.30;1.53;;;9.90;99.90;;;;;;5035111;28;20426;-37
2023/12/23 03:12:23;;;;;;;3.80;1.60;;;9.90;99.90;;;;;;5008973;28;21156;-34
2023/12/23 03:14:51;;;;;;;2.97;1.63;;;9.80;99.90;;;;;;5004318;28;20441;-29
2023/12/23 03:17:17;;;;;;;4.10;1.20;;;9.80;99.90;;;;;;5013820;28;20448;-27
2023/12/23 03:19:46;;;;;;;2.63;1.50;;;9.90;99.90;;;;;;5002197;28;20463;-31
2023/12/23 03:22:18;;;;;;;2.97;1.43;;;9.90;99.90;;;;;;5010065;28;20750;-33
2023/12/23 03:24:46;;;;;;;2.77;1.83;;;9.90;99.90;;;;;;5010597;28;21021;-34
2023/12/23 03:27:12;;;;;;;2.60;1.50;;;9.80;99.90;;;;;;5023232;28;20440;-33
2023/12/23 03:29:38;;;;;;;3.00;1.63;;;9.80;99.90;;;;;;5021291;28;20436;-37
2023/12/23 03:32:07;;;;;;;2.13;1.70;;;9.90;99.90;;;;;;5006745;23;20569;-37
2023/12/23 03:34:35;;;;;;;4.20;1.93;;;9.80;99.90;;;;;;4980713;28;21228;-31
2023/12/23 03:37:01;;;;;;;2.47;1.60;;;9.80;99.90;;;;;;4970118;28;20474;-36
2023/12/23 03:39:27;;;;;;;3.37;1.90;;;9.80;99.90;;;;;;4975451;28;20458;-36
2023/12/23 03:41:54;;;;;;;3.80;1.70;;;9.90;99.90;;;;;;4979060;28;20446;-35
2023/12/23 03:44:20;;;;;;;4.60;2.40;;;9.80;99.90;;;;;;4978158;28;20481;-36
2023/12/23 03:46:48;;;;;;;10.33;2.37;;;9.80;99.90;;;;;;4979445;28;20444;-30
2023/12/23 03:49:17;;;;;;;2.60;1.73;;;9.80;99.90;;;;;;4963559;28;20525;-33
2023/12/23 03:51:46;;;;;;;4.90;2.30;;;9.80;99.90;;;;;;4972987;28;20478;-33
2023/12/23 03:54:11;;;;;;;5.37;2.70;;;9.80;99.90;;;;;;4977566;28;20438;-35
2023/12/23 03:56:38;;;;;;;5.57;2.30;;;9.80;99.90;;;;;;4976857;28;20513;-41
2023/12/23 03:59:03;;;;;;;6.20;3.40;;;9.80;99.90;;;;;;4975262;28;20441;-34
2023/12/23 04:01:30;;;;;;;3.43;2.30;;;9.90;99.90;;;;;;4978073;28;20465;-37
2023/12/23 04:03:57;;;;;;;5.90;3.10;;;9.90;99.90;;;;;;4959774;28;20565;-37
2023/12/23 04:06:27;;;;;;;6.90;3.10;;;9.90;99.90;;;;;;4973432;28;20499;-33
2023/12/23 04:08:53;;;;;;;3.87;2.67;;;9.90;99.90;;;;;;4980104;28;20426;-37
2023/12/23 04:11:19;;;;;;;5.23;3.10;;;9.90;99.90;;;;;;4979117;28;20432;-29
2023/12/23 04:13:46;;;;;;;6.37;4.53;;;9.90;99.90;;;;;;4940245;28;20469;-36
2023/12/23 04:16:12;;;;;;;6.33;3.00;;;9.90;99.90;;;;;;4979157;28;20835;-33
2023/12/23 04:18:47;;;;;;;7.20;3.27;;;9.90;99.90;;;;;;4978958;28;20436;-34
2023/12/23 04:21:13;;;;;;;3.47;3.13;;;9.90;99.90;;;;;;4947132;28;20461;-36
2023/12/23 04:23:39;;;;;;;7.20;3.80;;;9.90;99.90;;;;;;4979191;28;20901;-34
2023/12/23 04:26:10;;;;;;;3.60;2.90;;;9.90;99.90;;;;;;4976278;28;20996;-39
2023/12/23 04:28:36;;;;;;;6.37;4.00;;;9.90;99.90;;;;;;4956608;28;20996;-30
2023/12/23 04:31:02;;;;;;;4.23;2.93;;;9.90;99.90;;;;;;4978858;28;21228;-37
2023/12/23 04:33:34;;;;;;;6.93;3.67;;;9.90;99.90;;;;;;4971582;28;20442;-38
2023/12/23 04:36:01;;;;;;;7.07;3.90;;;9.90;99.90;;;;;;4975026;28;21327;-34
2023/12/23 04:38:29;;;;;;;5.93;4.40;;;9.90;99.90;;;;;;4974545;28;21060;-34
2023/12/23 04:40:55;;;;;;;7.43;4.33;;;9.90;99.90;;;;;;4972528;28;20524;-36
2023/12/23 04:43:21;;;;;;;6.93;4.57;;;9.90;99.90;;;;;;4958950;28;20816;-35
2023/12/23 04:45:47;;;;;;;6.37;4.17;;;9.90;99.90;;;;;;4956735;28;20474;-32
2023/12/23 04:48:13;;;;;;;7.17;5.50;;;9.90;99.90;;;;;;4975093;28;20453;-39
2023/12/23 04:50:45;;;;;;;9.30;4.47;;;9.90;99.90;;;;;;4975788;28;20434;-37
2023/12/23 04:53:10;;;;;;;6.20;4.30;;;9.90;99.90;;;;;;4961925;28;20524;-38
2023/12/23 04:55:36;;;;;;;7.40;4.47;;;9.90;99.90;;;;;;4978830;28;20433;-37
2023/12/23 04:58:05;;;;;;;10.80;5.03;;;9.90;99.90;;;;;;4976801;28;20441;-36
2023/12/23 05:00:34;;;;;;;7.73;4.40;;;9.90;99.90;;;;;;4963086;28;20481;-37
2023/12/23 05:03:00;;;;;;;6.27;4.63;;;9.90;99.90;;;;;;4973708;28;20520;-38
2023/12/23 05:05:27;;;;;;;8.00;5.07;;;10.00;99.90;;;;;;4977725;28;20511;-37
2023/12/23 05:07:53;;;;;;;9.30;5.20;;;10.00;99.90;;;;;;4975018;28;20827;-34
2023/12/23 05:10:19;;;;;;;8.50;4.87;;;10.00;99.90;;;;;;4977770;28;20421;-32
2023/12/23 05:12:46;;;;;;;10.33;5.63;;;10.00;99.90;;;;;;4977950;28;20538;-34
2023/12/23 05:15:14;;;;;;;5.93;5.00;;;10.00;99.90;;;;;;4977829;28;20516;-33
2023/12/23 05:17:43;;;;;;;8.97;4.83;;;9.90;99.90;;;;;;4978539;28;21232;-34
2023/12/23 05:20:10;;;;;;;7.97;5.03;;;10.00;99.90;;;;;;4962624;28;20437;-29
2023/12/23 05:22:38;;;;;;;7.60;5.10;;;10.00;99.90;;;;;;4976898;28;20442;-35
2023/12/23 05:25:05;;;;;;;6.20;5.17;;;9.90;99.90;;;;;;4944887;28;21148;-38
2023/12/23 05:27:35;;;;;;;5.27;4.77;;;10.00;99.90;;;;;;4976030;28;20449;-32
2023/12/23 05:30:04;;;;;;;12.53;4.93;;;10.00;99.90;;;;;;4976902;28;20434;-35
2023/12/23 05:32:36;;;;;;;10.93;4.67;;;10.00;99.90;;;;;;4971679;28;20490;-31
2023/12/23 05:35:02;;;;;;;9.23;4.53;;;10.00;99.90;;;;;;4973983;28;20454;-33
2023/12/23 05:37:31;;;;;;;5.87;5.27;;;10.00;99.90;;;;;;4976746;28;20489;-38
2023/12/23 05:39:56;;;;;;;7.50;5.63;;;10.00;99.90;;;;;;4972384;28;20438;-31
2023/12/23 05:42:24;;;;;;;9.90;5.00;;;10.00;99.90;;;;;;4968261;28;20484;-38
2023/12/23 05:44:50;;;;;;;8.30;5.30;;;10.00;99.90;;;;;;4971686;28;20505;-32
2023/12/23 05:47:16;;;;;;;7.43;4.40;;;10.00;99.90;;;;;;4974959;28;20476;-34
2023/12/23 05:49:42;;;;;;;5.53;4.77;;;10.00;99.90;;;;;;4979898;28;20907;-36
2023/12/23 05:52:08;;;;;;;10.77;6.87;;;10.00;99.90;;;;;;4969953;28;20433;-33
2023/12/23 05:54:34;;;;;;;8.27;5.40;;;10.00;99.90;;;;;;4976056;28;20487;-35
2023/12/23 05:57:00;;;;;;;8.33;5.80;;;10.00;99.90;;;;;;4968354;28;20438;-36
2023/12/23 05:59:29;;;;;;;5.70;4.80;;;10.00;99.90;;;;;;4972843;28;20435;-34
2023/12/23 06:01:57;;;;;;;6.70;5.53;;;10.00;99.90;;;;;;4977524;28;20450;-38
2023/12/23 06:04:23;;;;;;;7.30;5.00;;;10.00;99.90;;;;;;4969396;28;20472;-32
2023/12/23 06:06:51;;;;;;;8.80;5.30;;;10.00;99.90;;;;;;4975040;28;20461;-33
2023/12/23 06:09:17;;;;;;;7.27;4.70;;;10.00;99.90;;;;;;4977126;28;20873;-30
2023/12/23 06:11:43;;;;;;;6.60;5.27;;;10.00;99.90;;;;;;4979503;28;21706;-34
2023/12/23 06:14:11;;;;;;;8.17;5.10;;;10.00;99.90;;;;;;4958131;28;20425;-30
2023/12/23 06:16:39;;;;;;;8.37;5.07;;;10.00;99.90;;;;;;4973233;28;20217;-35
2023/12/23 06:19:07;;;;;;;6.87;5.57;;;10.00;99.90;;;;;;4978215;28;20429;-36
2023/12/23 06:21:33;;;;;;;8.40;4.90;;;10.00;99.90;;;;;;4978092;28;20456;-31
2023/12/23 06:24:01;;;;;;;8.27;4.83;;;10.00;99.90;;;;;;4980813;28;20469;-33
2023/12/23 06:26:30;;;;;;;10.90;5.60;;;10.00;99.90;;;;;;4976588;28;21483;-31
2023/12/23 06:28:58;;;;;;;6.13;4.97;;;10.00;99.90;;;;;;4982041;28;20433;-33
2023/12/23 06:31:24;;;;;;;9.37;5.40;;;10.00;99.90;;;;;;4969389;28;20525;-36
2023/12/23 06:33:50;;;;;;;7.60;5.00;;;10.00;99.90;;;;;;4982342;28;20464;-34
2023/12/23 06:36:16;;;;;;;9.53;5.07;;;10.00;99.90;;;;;;4973580;28;20508;-32
2023/12/23 06:38:45;;;;;;;7.07;5.50;;;10.00;99.90;;;;;;4980298;28;20874;-36
2023/12/23 06:41:12;;;;;;;6.30;5.23;;;10.00;99.90;;;;;;4973613;28;20552;-36
2023/12/23 06:43:39;;;;;;;5.60;4.77;;;10.00;99.90;;;;;;4960143;28;20521;-35
2023/12/23 06:46:05;;;;;;;8.77;6.17;;;10.00;99.90;;;;;;4980035;28;20993;-34
2023/12/23 06:48:31;;;;;;;7.80;5.13;;;10.00;99.90;;;;;;4976534;28;20432;-35
2023/12/23 06:50:57;;;;;;;5.67;5.00;;;10.00;99.90;;;;;;4964182;28;20441;-35
2023/12/23 06:53:23;;;;;;;8.03;5.20;;;10.00;99.90;;;;;;4984889;28;20958;-34
2023/12/23 06:55:49;;;;;;;9.77;5.07;;;10.00;99.90;;;;;;4972439;28;20458;-33
2023/12/23 06:58:21;;;;;;;7.77;5.40;;;10.00;99.90;;;;;;4981039;28;20455;-32
2023/12/23 07:00:52;;;;;;;6.73;4.53;;;10.00;99.90;;;;;;4971786;28;20865;-33
2023/12/23 07:03:20;;;;;;;6.27;4.60;;;10.00;99.90;;;;;;4980786;28;20445;-34
2023/12/23 07:05:46;;;;;;;6.80;4.70;;;10.00;99.90;;;;;;4982637;28;20473;-33
2023/12/23 07:08:12;;;;;;;9.67;5.10;;;10.00;99.90;;;;;;4972646;28;20457;-32
2023/12/23 07:10:41;;;;;;;4.60;4.20;;;10.00;99.90;;;;;;4973269;28;20430;-35
2023/12/23 07:13:07;;;;;;;6.40;5.20;;;10.00;99.90;;;;;;4979155;28;20464;-32
2023/12/23 07:15:37;;;;;;;5.77;4.60;;;10.00;99.90;;;;;;4979587;28;20444;-32
2023/12/23 07:18:03;;;;;;;9.33;4.43;;;10.00;99.90;;;;;;4976122;28;20453;-31
2023/12/23 07:20:30;;;;;;;6.33;4.37;;;10.00;99.90;;;;;;4979126;28;20504;-32
2023/12/23 07:22:56;;;;;;;6.80;4.93;;;10.00;99.90;;;;;;4972453;28;21260;-35
2023/12/23 07:25:22;;;;;;;6.00;4.57;;;10.00;99.90;;;;;;4972182;28;20479;-36
2023/12/23 07:27:48;;;;;;;8.10;4.80;;;10.00;99.90;;;;;;4976411;28;20703;-35
2023/12/23 07:30:16;;;;;;;6.73;4.93;;;10.10;99.90;;;;;;4980782;28;20424;-37
2023/12/23 07:32:43;;;;;;;10.13;4.37;;;10.10;99.90;;;;;;4978293;28;20453;-36
2023/12/23 07:35:11;;;;;;;9.60;4.50;;;10.10;99.90;;;;;;4963249;28;20531;-34
2023/12/23 07:37:44;;;;;;;6.30;4.00;;;10.10;99.90;;;;;;4980724;28;20461;-38
2023/12/23 07:40:11;;;;;;;5.83;4.50;;;10.10;99.90;;;;;;4975932;28;20426;-29
2023/12/23 07:42:37;;;;;;;6.37;4.17;;;10.10;99.90;;;;;;4981474;28;20432;-32
2023/12/23 07:45:04;;;;;;;6.27;4.53;;;10.10;99.90;;;;;;4973961;28;21105;-33
2023/12/23 07:47:30;;;;;;;6.07;4.53;;;10.10;99.90;;;;;;4972644;28;20451;-35
2023/12/23 07:49:59;;;;;;;7.70;4.50;;;10.10;99.90;;;;;;4975893;28;20898;-32
2023/12/23 07:52:28;;;;;;;7.23;4.70;;;10.10;99.90;;;;;;4965832;28;20527;-34
2023/12/23 07:54:54;;;;;;;7.77;4.80;;;10.10;99.90;;;;;;4981607;28;20443;-33
2023/12/23 07:57:22;;;;;;;5.63;4.57;;;10.10;99.90;;;;;;4977846;28;20445;-35
2023/12/23 07:59:53;;;;;;;5.57;4.10;;;10.10;99.90;;;;;;4970370;28;20980;-39
2023/12/23 08:02:19;;;;;;;7.43;4.33;;;10.00;99.90;;;;;;4975880;28;20488;-36
2023/12/23 08:04:45;;;;;;;5.20;4.13;;;10.10;99.90;;;;;;4967667;28;20469;-34
2023/12/23 08:07:16;;;;;;;8.13;4.70;;;10.10;99.90;;;;;;4974298;28;20476;-35
2023/12/23 08:09:44;;;;;;;7.17;5.10;;;10.10;99.90;;;;;;4954232;28;20434;-32
2023/12/23 08:12:11;;;;;;;6.33;4.30;;;10.10;99.90;;;;;;4972937;28;20437;-31
2023/12/23 08:14:39;;;;;;;9.47;5.17;;;10.10;99.90;;;;;;4973147;28;21173;-33
2023/12/23 08:17:05;;;;;;;9.30;5.00;;;10.10;99.90;;;;;;4972379;28;20992;-39
2023/12/23 08:19:32;;;;;;;5.63;4.57;;;10.10;99.90;;;;;;4969802;28;20541;-32
2023/12/23 08:21:57;;;;;;;9.57;5.00;;;10.10;99.90;;;;;;4972022;28;20587;-35
2023/12/23 08:24:26;;;;;;;6.33;4.30;;;10.10;99.90;;;;;;4963964;28;20579;-40
2023/12/23 08:26:54;;;;;;;8.43;4.83;;;10.10;99.90;;;;;;4970051;28;20556;-32
2023/12/23 08:29:24;;;;;;;8.93;5.07;;;10.10;99.90;;;;;;4974623;28;20541;-36
2023/12/23 08:31:52;;;;;;;5.40;4.90;;;10.00;99.90;;;;;;4974063;28;20437;-39
2023/12/23 08:34:18;;;;;;;6.63;4.90;;;10.10;99.90;;;;;;4976190;28;20552;-33
2023/12/23 08:36:44;;;;;;;8.33;4.37;;;10.10;99.90;;;;;;4959848;28;20495;-36
2023/12/23 08:39:10;;;;;;;8.60;4.63;;;10.10;99.90;;;;;;4971474;28;20442;-31
2023/12/23 08:41:36;;;;;;;6.37;4.60;;;10.10;99.90;;;;;;4978286;28;20444;-32
2023/12/23 08:44:03;;;;;;;10.20;5.23;;;10.10;99.90;;;;;;4979441;28;20505;-30
2023/12/23 08:46:30;;;;;;;5.60;4.50;;;10.10;99.90;;;;;;4973909;28;21060;-32
2023/12/23 08:48:59;;;;;;;9.47;5.40;;;10.10;99.90;;;;;;4966566;28;20450;-31
2023/12/23 08:51:29;;;;;;;6.53;4.93;;;10.10;99.90;;;;;;4969495;28;20477;-32
2023/12/23 08:53:55;;;;;;;10.53;4.77;;;10.10;99.90;;;;;;4975447;28;20441;-28
2023/12/23 08:56:24;;;;;;;6.20;4.50;;;10.10;99.90;;;;;;4970169;28;20450;-32
2023/12/23 08:58:53;;;;;;;6.83;4.87;;;10.10;99.90;;;;;;4964966;28;20501;-35
2023/12/23 09:01:22;;;;;;;7.67;4.97;;;10.10;99.90;;;;;;4972488;28;20537;-32
2023/12/23 09:03:53;;;;;;;12.43;4.37;;;10.10;99.90;;;;;;4975868;28;20533;-31
2023/12/23 09:06:21;;;;;;;5.70;4.20;;;10.10;99.90;;;;;;4970042;28;20452;-33
2023/12/23 09:08:47;;;;;;;8.77;4.80;;;10.10;99.90;;;;;;4975835;28;20440;-34
2023/12/23 09:11:13;;;;;;;4.20;3.80;;;10.10;99.90;;;;;;4969294;28;20446;-32
2023/12/23 09:13:41;;;;;;;5.87;4.53;;;10.10;99.90;;;;;;4936760;28;20454;-30
2023/12/23 09:16:10;;;;;;;5.50;3.90;;;10.10;99.90;;;;;;4977282;28;20507;-30
2023/12/23 09:18:36;;;;;;;6.67;4.00;;;10.10;99.90;;;;;;4974652;28;20441;-30
2023/12/23 09:21:05;;;;;;;6.67;4.07;;;10.10;99.90;;;;;;4977226;28;20445;-31
2023/12/23 09:23:37;;;;;;;7.87;4.13;;;10.10;99.90;;;;;;4976013;28;20452;-31
2023/12/23 09:26:03;;;;;;;10.47;4.87;;;10.10;99.90;;;;;;4973264;28;20447;-30
2023/12/23 09:28:31;;;;;;;7.10;4.03;;;10.10;99.90;;;;;;4972644;28;20461;-33
2023/12/23 09:31:00;;;;;;;4.90;3.90;;;10.10;99.90;;;;;;4972528;28;20419;-32
2023/12/23 09:33:26;;;;;;;5.60;3.70;;;10.10;99.90;;;;;;4971710;28;20502;-31
2023/12/23 09:35:59;;;;;;;6.20;3.40;;;10.10;99.90;;;;;;4961103;28;20553;-31
2023/12/23 09:38:25;;;;;;;5.27;3.40;;;10.10;99.90;;;;;;4971333;28;20429;-30
2023/12/23 09:40:52;;;;;;;6.53;3.50;;;10.10;99.90;;;;;;4979812;28;20447;-34
2023/12/23 09:43:21;;;;;;;7.73;3.57;;;10.10;99.90;;;;;;4977498;28;20445;-34
2023/12/23 09:45:50;;;;;;;5.23;3.20;;;10.20;99.90;;;;;;4977171;28;20473;-29
2023/12/23 09:48:19;;;;;;;4.90;2.77;;;10.10;99.90;;;;;;4963869;28;20485;-32
2023/12/23 09:50:46;;;;;;;5.00;3.83;;;10.20;99.90;;;;;;4977396;28;20445;-30
2023/12/23 09:53:16;;;;;;;6.20;3.20;;;10.20;99.90;;;;;;4974803;28;20429;-32
2023/12/23 09:55:43;;;;;;;6.63;2.93;;;10.20;99.90;;;;;;4961066;28;20500;-30
2023/12/23 09:58:09;;;;;;;6.60;2.67;;;10.20;99.90;;;;;;4977928;28;20484;-29
2023/12/23 10:00:35;;;;;;;10.80;3.47;;;10.20;99.90;;;;;;4978915;28;20429;-31
2023/12/23 10:03:03;;;;;;;3.80;2.80;;;10.10;99.90;;;;;;4979412;28;20480;-34
2023/12/23 10:05:31;;;;;;;5.77;2.70;;;10.10;99.90;;;;;;4979655;28;20482;-31
2023/12/23 10:07:59;;;;;;;7.90;3.70;;;10.20;99.90;;;;;;4972588;28;20902;-31
2023/12/23 10:10:26;;;;;;;5.60;3.17;;;10.20;99.90;;;;;;4975054;28;20977;-29
2023/12/23 10:12:55;;;;;;;5.20;2.47;;;10.20;99.90;;;;;;4976891;28;20457;-34
2023/12/23 10:15:20;;;;;;;9.93;2.67;;;10.20;99.90;;;;;;4978690;28;21006;-30
2023/12/23 10:17:49;;;;;;;5.40;2.83;;;10.20;99.90;;;;;;4977405;28;20447;-30
2023/12/23 10:20:16;;;;;;;7.07;2.90;;;10.20;99.90;;;;;;4973786;28;20457;-29
2023/12/23 10:22:45;;;;;;;7.37;2.47;;;10.20;99.90;;;;;;4977011;28;21045;-30
2023/12/23 10:25:12;;;;;;;8.77;2.80;;;10.20;99.90;;;;;;4975120;28;20481;-29
2023/12/23 10:27:41;;;;;;;6.90;3.70;;;10.20;99.90;;;;;;4976675;28;20507;-30
2023/12/23 10:30:11;;;;;;;10.03;3.87;;;10.30;99.90;;;;;;4976976;28;20441;-31
2023/12/23 10:32:38;;;;;;;10.80;3.30;;;10.20;99.90;;;;;;4975028;28;20556;-30
2023/12/23 10:35:13;;;;;;;4.40;2.60;;;10.20;99.90;;;;;;4978657;28;20509;-33
2023/12/23 10:37:42;;;;;;;6.40;3.20;;;10.20;99.90;;;;;;4977974;28;20456;-31
2023/12/23 10:43:25;;;;;;;4.53;2.80;;;10.20;99.90;;;;;;4956260;28;21376;-32
2023/12/23 10:45:53;;;;;;;5.73;2.40;;;10.20;99.90;;;;;;4977529;28;21212;-30
2023/12/23 10:48:22;;;;;;;4.43;2.50;;;10.20;99.90;;;;;;4973664;28;20490;-31
2023/12/23 10:50:50;;;;;;;5.30;3.03;;;10.20;99.90;;;;;;4973020;28;21075;-33
2023/12/23 10:53:18;;;;;;;5.37;2.70;;;10.20;99.90;;;;;;4973112;28;20454;-34
2023/12/23 10:55:45;;;;;;;5.33;2.87;;;10.20;99.90;;;;;;4976572;28;20898;-33
2023/12/23 10:58:12;;;;;;;3.73;2.90;;;10.20;99.90;;;;;;4973329;28;20430;-32
2023/12/23 11:00:42;;;;;;;6.00;3.30;;;10.20;99.90;;;;;;4961354;28;20457;-29
2023/12/23 11:03:09;;;;;;;4.60;3.40;;;10.20;99.90;;;;;;4978829;28;20983;-34
2023/12/23 11:05:42;;;;;;;6.87;2.90;;;10.20;99.90;;;;;;4978089;28;20659;-32
2023/12/23 11:08:28;;;;;;;5.97;2.50;;;10.20;99.90;;;;;;4972216;28;20464;-33
2023/12/23 11:11:16;;;;;;;4.07;2.90;;;10.20;99.90;;;;;;4978115;28;20525;-32
2023/12/23 11:14:04;;;;;;;7.67;3.07;;;10.20;99.90;;;;;;4958992;28;21034;-33
2023/12/23 11:16:30;;;;;;;5.57;3.00;;;10.20;99.90;;;;;;4971417;28;20449;-31
2023/12/23 11:19:04;;;;;;;7.90;3.83;;;10.20;99.90;;;;;;4976239;28;20434;-32
2023/12/23 11:21:31;;;;;;;4.27;3.03;;;10.20;99.90;;;;;;4973727;28;20935;-31
2023/12/23 11:23:58;;;;;;;6.30;3.10;;;10.20;99.90;;;;;;4980977;28;20429;-31
2023/12/23 11:26:39;;;;;;;5.50;3.50;;;10.20;99.90;;;;;;4982897;28;20441;-33
2023/12/23 11:29:06;;;;;;;6.33;3.00;;;10.20;99.90;;;;;;4975859;28;21343;-30
2023/12/23 11:31:35;;;;;;;6.60;3.53;;;10.20;99.90;;;;;;4977586;28;20440;-30
2023/12/23 11:34:11;;;;;;;5.07;3.40;;;10.20;99.90;;;;;;4979826;28;21356;-31
2023/12/23 11:36:40;;;;;;;10.00;3.60;;;10.30;99.90;;;;;;4974083;28;20834;-34
2023/12/23 11:39:06;;;;;;;4.80;3.57;;;10.30;99.90;;;;;;4979921;28;20425;-31
2023/12/23 11:41:33;;;;;;;5.30;3.53;;;10.30;99.90;;;;;;4960565;28;20595;-35
2023/12/23 11:43:59;;;;;;;8.40;3.43;;;10.30;99.90;;;;;;4975779;28;20422;-33
2023/12/23 11:46:25;;;;;;;4.60;3.73;;;10.30;99.90;;;;;;4959795;28;20457;-35
2023/12/23 11:48:51;;;;;;;3.80;3.30;;;10.30;99.90;;;;;;4975224;28;21044;-31
2023/12/23 11:51:18;;;;;;;8.13;3.90;;;10.30;99.90;;;;;;4977318;28;20434;-31
2023/12/23 11:53:45;;;;;;;6.47;4.40;;;10.30;99.90;;;;;;4978536;28;20437;-33
2023/12/23 11:56:11;;;;;;;6.00;3.13;;;10.30;99.90;;;;;;4978306;28;21054;-32
2023/12/23 11:58:37;;;;;;;7.67;4.10;;;10.30;99.90;;;;;;4980043;28;21056;-29
2023/12/23 12:01:09;;;;;;;6.50;3.70;;;10.30;99.90;;;;;;4981783;28;20418;-31
2023/12/23 12:03:35;;;;;;;7.97;3.40;;;10.30;99.90;;;;;;4979027;28;20449;-31
2023/12/23 12:06:04;;;;;;;5.60;4.00;;;10.30;99.90;;;;;;4962896;28;20531;-30
2023/12/23 12:08:30;;;;;;;8.73;3.93;;;10.30;99.90;;;;;;4977741;28;21003;-34
2023/12/23 12:10:56;;;;;;;5.10;3.73;;;10.30;99.90;;;;;;4980828;28;20429;-32
2023/12/23 12:13:28;;;;;;;6.60;3.63;;;10.30;99.90;;;;;;4979535;28;20552;-30
2023/12/23 12:15:54;;;;;;;8.20;3.63;;;10.30;99.90;;;;;;4973932;28;20438;-30
2023/12/23 12:18:21;;;;;;;7.53;4.10;;;10.30;99.90;;;;;;4973034;28;20430;-33
2023/12/23 12:20:47;;;;;;;6.27;3.67;;;10.30;99.90;;;;;;4980948;28;20430;-29
2023/12/23 12:23:13;;;;;;;3.80;2.83;;;10.30;99.90;;;;;;4978680;28;20992;-32
2023/12/23 12:25:48;;;;;;;4.27;3.40;;;10.30;99.90;;;;;;4979549;28;20916;-32
2023/12/23 12:28:15;;;;;;;6.50;3.50;;;10.30;99.90;;;;;;4977786;28;20452;-31
2023/12/23 12:30:43;;;;;;;4.57;3.67;;;10.30;99.90;;;;;;4970490;28;20434;-28
2023/12/23 12:33:11;;;;;;;3.70;3.00;;;10.30;99.90;;;;;;4977492;28;20781;-30
2023/12/23 12:35:40;;;;;;;4.57;3.10;;;10.30;99.90;;;;;;4960517;28;20487;-32
2023/12/23 12:38:08;;;;;;;4.50;3.40;;;10.30;99.90;;;;;;4977107;28;20476;-33
2023/12/23 12:40:35;;;;;;;6.60;3.57;;;10.30;99.90;;;;;;4959541;28;20819;-29
2023/12/23 12:43:06;;;;;;;4.50;3.20;;;10.30;99.90;;;;;;4975109;28;20422;-31
2023/12/23 12:45:40;;;;;;;5.50;3.20;;;10.30;99.90;;;;;;4977232;28;20529;-33
2023/12/23 12:48:12;;;;;;;2.93;2.60;;;10.40;99.90;;;;;;4978539;28;20434;-31
2023/12/23 12:50:47;;;;;;;8.17;2.60;;;10.40;99.90;;;;;;4976550;28;20554;-31
2023/12/23 12:53:19;;;;;;;6.43;2.73;;;10.30;99.90;;;;;;4975906;28;20422;-32
2023/12/23 12:55:50;;;;;;;9.30;2.73;;;10.30;99.90;;;;;;4976855;28;20540;-32
2023/12/23 12:58:18;;;;;;;6.20;3.07;;;10.40;99.90;;;;;;4969745;28;20481;-34